Time;durP1;ratioP1;P1;durP2;ratioP2;P2;SDS_P1;SDS_P2;PMS_P1;PMS_P2;Temp;Humidity;BMP_temperature;BMP_pressure;BME280_temperature;BME280_humidity;BME280_pressure;Samples;Min_cycle;Max_cycle;Signal;HPM_P1;HPM_P2
2022/01/20 00:00:00;;;;;;;7.57;3.90;;;;;;;-10.39;75.11;96214.55;1694859;85;21021;-67
2022/01/20 00:02:22;;;;;;;11.30;5.10;;;;;;;-10.26;75.42;96214.59;1695036;85;21029;-67
2022/01/20 00:04:52;;;;;;;13.17;5.10;;;;;;;-10.26;75.19;96212.44;1695822;85;20998;-67
2022/01/20 00:07:29;;;;;;;13.67;5.70;;;;;;;-10.31;75.28;96210.87;1695539;84;21049;-67
2022/01/20 00:23:30;;;;;;;4.33;2.33;;;;;;;-9.87;75.08;96186.63;1660043;85;21092;-67
2022/01/20 00:26:10;;;;;;;9.97;4.33;;;;;;;-9.99;73.88;96178.13;1666444;86;21050;-67
2022/01/20 00:28:18;;;;;;;8.23;3.50;;;;;;;-10.12;74.10;96181.52;1658976;86;21481;-67
2022/01/20 00:30:57;;;;;;;6.60;3.13;;;;;;;-10.15;73.95;96178.76;1666595;86;21584;-68
2022/01/20 00:33:33;;;;;;;8.53;3.47;;;;;;;-10.23;73.78;96178.20;1694355;85;21041;-67
2022/01/20 00:38:33;;;;;;;9.37;3.57;;;;;;;-10.40;74.42;96162.17;1695587;85;21093;-68
2022/01/20 00:41:01;;;;;;;15.07;5.70;;;;;;;-10.42;74.76;96159.90;1695684;85;21137;-68
2022/01/20 00:43:28;;;;;;;12.00;5.27;;;;;;;-10.48;75.14;96154.87;1695552;85;21068;-68
2022/01/20 00:45:54;;;;;;;12.47;3.57;;;;;;;-10.49;75.72;96155.62;1695732;85;21054;-68
2022/01/20 00:48:23;;;;;;;11.33;3.93;;;;;;;-10.51;75.32;96149.92;1695356;85;21526;-67
2022/01/20 00:50:50;;;;;;;9.57;3.60;;;;;;;-10.56;74.81;96152.14;1695647;85;21072;-69
2022/01/20 00:53:17;;;;;;;9.37;4.20;;;;;;;-10.44;75.53;96149.97;1695488;85;21088;-68
2022/01/20 00:55:43;;;;;;;8.00;3.57;;;;;;;-10.30;75.41;96144.17;1695633;85;21037;-68
2022/01/20 00:58:10;;;;;;;6.30;2.70;;;;;;;-10.37;74.58;96142.85;1695306;85;21113;-69
2022/01/20 01:00:37;;;;;;;6.90;3.10;;;;;;;-10.32;74.73;96129.14;1695434;85;21093;-68
2022/01/20 01:03:04;;;;;;;6.47;2.83;;;;;;;-10.41;74.48;96125.95;1695722;85;21547;-68
2022/01/20 01:05:34;;;;;;;8.70;3.70;;;;;;;-10.51;74.17;96128.25;1695208;85;21026;-68
2022/01/20 01:08:00;;;;;;;10.93;3.90;;;;;;;-10.49;74.51;96127.58;1695692;84;21502;-68
2022/01/20 01:10:31;;;;;;;7.47;3.93;;;;;;;-10.54;74.29;96129.31;1695922;85;20982;-68
2022/01/20 01:13:03;;;;;;;3.70;1.83;;;;;;;-10.50;74.43;96127.48;1695762;85;21057;-68
2022/01/20 01:15:34;;;;;;;5.40;2.97;;;;;;;-10.46;74.57;96124.34;1695399;85;21013;-68
2022/01/20 01:21:10;;;;;;;10.03;3.17;;;;;;;-10.89;74.11;96120.95;1695783;85;21491;-67
2022/01/20 01:23:14;;;;;;;7.57;3.33;;;;;;;-10.81;75.00;96115.52;1693058;84;21124;-69
2022/01/20 01:25:41;;;;;;;6.53;3.57;;;;;;;-10.67;75.21;96110.61;1695236;85;21018;-70
2022/01/20 01:28:07;;;;;;;7.20;3.77;;;;;;;-10.58;75.14;96103.09;1695697;85;21085;-69
2022/01/20 01:31:05;;;;;;;6.97;2.60;;;;;;;-10.56;74.72;96106.25;1695709;85;21487;-69
2022/01/20 01:33:08;;;;;;;3.03;1.63;;;;;;;-10.53;74.74;96093.73;1692360;85;21574;-69
2022/01/20 01:35:38;;;;;;;6.23;2.90;;;;;;;-10.56;74.02;96092.22;1695857;85;21141;-69
2022/01/20 01:40:33;;;;;;;4.03;2.10;;;;;;;-10.64;74.62;96090.81;1695701;85;21029;-69
2022/01/20 01:43:06;;;;;;;5.20;2.33;;;;;;;-10.58;74.33;96091.62;1695735;85;21025;-69
2022/01/20 01:45:35;;;;;;;6.87;2.50;;;;;;;-10.89;73.62;96080.17;1695505;85;21511;-69
2022/01/20 01:48:05;;;;;;;6.90;3.20;;;;;;;-10.86;74.31;96074.80;1677549;84;21053;-69
2022/01/20 01:50:32;;;;;;;4.47;2.83;;;;;;;-10.81;74.43;96073.09;1695675;85;21009;-69
2022/01/20 01:53:04;;;;;;;6.30;2.70;;;;;;;-10.79;74.90;96066.81;1695289;85;21025;-70
2022/01/20 01:55:32;;;;;;;6.87;3.20;;;;;;;-10.84;74.38;96069.42;1695868;85;21535;-69
2022/01/20 01:57:59;;;;;;;5.83;2.43;;;;;;;-10.79;74.85;96057.48;1695760;85;21025;-69
2022/01/20 02:00:27;;;;;;;8.30;2.97;;;;;;;-10.80;74.34;96048.09;1695620;85;21008;-69
2022/01/20 02:02:55;;;;;;;7.67;3.27;;;;;;;-10.71;74.70;96044.91;1695657;85;21052;-69
2022/01/20 02:05:24;;;;;;;9.57;2.50;;;;;;;-10.65;74.36;96027.86;1694259;85;21077;-69
2022/01/20 02:18:54;;;;;;;4.07;2.33;;;;;;;-10.84;74.01;96027.38;1700863;84;21025;-69
2022/01/20 02:22:01;;;;;;;6.00;2.50;;;;;;;-10.94;73.74;96022.90;1698839;84;21063;-69
2022/01/20 02:24:26;;;;;;;4.30;1.90;;;;;;;-11.02;73.89;96031.69;1700874;84;21081;-69
2022/01/20 02:26:53;;;;;;;8.63;2.40;;;;;;;-11.06;73.92;96022.08;1701094;84;21032;-69
2022/01/20 02:29:25;;;;;;;6.33;1.67;;;;;;;-11.03;74.20;96014.64;1700754;84;21132;-69
2022/01/20 02:31:58;;;;;;;6.27;2.33;;;;;;;-10.96;74.32;96009.55;1700658;84;21017;-69
2022/01/20 02:34:31;;;;;;;6.90;2.72;;;;;;;-11.01;74.17;96006.72;1700949;84;21032;-69
2022/01/20 02:37:03;;;;;;;4.37;1.90;;;;;;;-11.06;74.47;96005.52;1700942;84;21021;-69
2022/01/20 02:44:54;;;;;;;6.40;2.83;;;;;;;-10.78;74.38;95989.17;1701354;84;20140;-69
2022/01/20 02:47:26;;;;;;;8.43;3.17;;;;;;;-10.78;73.81;95995.95;1701387;84;21567;-69
2022/01/20 02:49:54;;;;;;;6.37;2.30;;;;;;;-10.79;74.06;95994.16;1700849;84;21029;-69
2022/01/20 02:52:23;;;;;;;5.23;2.67;;;;;;;-10.89;73.79;95988.81;1701034;84;21052;-69
2022/01/20 02:54:50;;;;;;;5.67;2.73;;;;;;;-10.82;74.13;95991.41;1683074;84;21025;-69
2022/01/20 02:57:18;;;;;;;5.90;2.63;;;;;;;-10.79;74.27;95982.69;1700917;84;21013;-69
2022/01/20 02:59:45;;;;;;;10.57;5.03;;;;;;;-10.91;73.38;95991.28;1701410;84;20993;-69
2022/01/20 03:02:12;;;;;;;2.93;1.80;;;;;;;-11.00;74.06;95994.45;1701105;84;21010;-69
2022/01/20 03:04:39;;;;;;;16.37;8.03;;;;;;;-11.10;73.69;95997.15;1700845;84;21009;-69
2022/01/20 03:07:08;;;;;;;25.97;13.47;;;;;;;-11.31;74.37;95990.18;1700820;84;21076;-69
2022/01/20 03:09:35;;;;;;;17.97;9.03;;;;;;;-11.39;74.84;95983.28;1700990;84;21013;-69
2022/01/20 03:12:04;;;;;;;4.57;2.20;;;;;;;-11.44;74.49;95973.16;1700558;84;21100;-69
2022/01/20 03:14:31;;;;;;;4.87;1.77;;;;;;;-11.45;74.45;95973.91;1701026;84;21020;-69
2022/01/20 03:16:58;;;;;;;6.50;3.37;;;;;;;-11.39;75.50;95973.45;1701102;84;21495;-69
2022/01/20 03:19:24;;;;;;;6.83;2.67;;;;;;;-11.39;75.26;95973.09;1700588;84;21005;-69
2022/01/20 03:21:51;;;;;;;4.83;2.37;;;;;;;-11.36;74.76;95960.96;1701101;84;21029;-69
2022/01/20 03:24:18;;;;;;;9.87;4.13;;;;;;;-11.37;75.34;95960.05;1701012;84;21047;-69
2022/01/20 03:26:44;;;;;;;11.90;5.10;;;;;;;-11.35;75.11;95949.98;1700844;84;21040;-69
2022/01/20 03:29:11;;;;;;;6.10;2.30;;;;;;;-11.33;74.85;95950.98;1701091;84;21089;-69
2022/01/20 03:31:38;;;;;;;3.37;1.87;;;;;;;-11.47;74.97;95944.91;1700729;84;21154;-69
2022/01/20 03:34:06;;;;;;;4.43;2.33;;;;;;;-11.52;74.64;95946.25;1700654;84;21033;-69
2022/01/20 03:36:35;;;;;;;6.50;2.50;;;;;;;-11.43;75.04;95943.48;1701101;84;21016;-69
2022/01/20 03:39:05;;;;;;;22.73;9.57;;;;;;;-11.45;75.21;95946.30;1695599;84;21081;-69
2022/01/20 03:41:32;;;;;;;15.27;7.60;;;;;;;-11.37;75.42;95947.31;1701002;84;21066;-69
2022/01/20 03:43:59;;;;;;;20.77;9.30;;;;;;;-11.37;74.81;95951.53;1700979;84;21514;-68
2022/01/20 03:46:26;;;;;;;11.30;4.63;;;;;;;-11.43;74.45;95958.36;1700593;84;21088;-69
2022/01/20 03:48:56;;;;;;;4.30;0.93;;;;;;;-11.59;74.57;95953.86;1700959;84;21499;-69
2022/01/20 03:51:25;;;;;;;13.53;5.73;;;;;;;-11.64;74.35;95948.84;1700946;84;21041;-69
2022/01/20 03:53:55;;;;;;;10.23;4.93;;;;;;;-11.64;74.44;95950.47;1700859;84;21491;-68
2022/01/20 03:56:25;;;;;;;31.77;10.00;;;;;;;-11.73;73.34;95953.66;1700526;84;21021;-69
2022/01/20 03:58:53;;;;;;;6.60;2.73;;;;;;;-11.88;73.87;95953.09;1700222;84;21065;-68
2022/01/20 04:01:20;;;;;;;70.77;20.43;;;;;;;-11.84;74.20;95965.59;1700964;84;21570;-69
2022/01/20 04:03:51;;;;;;;5.17;1.73;;;;;;;-11.85;75.16;95965.11;1699897;84;21049;-69
2022/01/20 04:06:19;;;;;;;5.77;2.73;;;;;;;-11.74;74.96;95965.88;1699959;84;21090;-70
2022/01/20 04:08:48;;;;;;;6.80;2.30;;;;;;;-11.76;74.57;95959.42;1700751;84;21057;-69
2022/01/20 04:11:21;;;;;;;3.30;2.03;;;;;;;-11.74;74.66;95957.88;1701073;84;21002;-68
2022/01/20 04:13:50;;;;;;;3.80;2.00;;;;;;;-11.72;75.12;95959.23;1701077;84;21049;-68
2022/01/20 04:16:35;;;;;;;2.80;1.20;;;;;;;-11.77;75.02;95966.17;1701048;84;21080;-69
2022/01/20 04:19:07;;;;;;;2.27;1.43;;;;;;;-11.86;74.50;95955.33;1701158;84;21084;-69
2022/01/20 04:21:37;;;;;;;1.82;1.22;;;;;;;-11.83;75.19;95953.39;1682804;84;21029;-68
2022/01/20 04:24:06;;;;;;;3.97;2.00;;;;;;;-11.81;75.15;95948.91;1700975;84;21080;-68
2022/01/20 04:26:38;;;;;;;2.60;1.63;;;;;;;-11.73;75.57;95940.94;1701007;84;21029;-68
2022/01/20 04:29:07;;;;;;;;;;;;;;;-11.83;74.89;95945.36;1703548;84;21133;-68
2022/01/20 04:31:36;;;;;;;3.40;1.83;;;;;;;-11.81;74.97;95940.39;1701009;84;20432;-69
2022/01/20 04:34:03;;;;;;;12.07;3.93;;;;;;;-11.91;75.01;95929.10;1700866;84;21550;-69
2022/01/20 04:36:36;;;;;;;16.63;6.00;;;;;;;-11.80;75.62;95930.70;1700860;84;21041;-69
2022/01/20 04:39:06;;;;;;;13.72;5.47;;;;;;;-11.79;74.38;95929.55;1701112;84;21092;-69
2022/01/20 04:41:35;;;;;;;6.67;2.10;;;;;;;-11.90;74.31;95923.22;1701056;84;21020;-69
2022/01/20 04:44:18;;;;;;;5.20;2.37;;;;;;;-11.89;74.71;95913.17;1700963;84;20985;-69
2022/01/20 04:47:00;;;;;;;32.07;13.10;;;;;;;-11.87;74.90;95923.44;1700102;84;21092;-69
2022/01/20 04:57:37;;;;;;;31.80;12.73;;;;;;;-11.95;73.81;95926.70;1682932;84;21007;-66
2022/01/20 05:00:06;;;;;;;64.77;23.83;;;;;;;-12.15;73.34;95924.00;1700977;84;21124;-66
2022/01/20 05:02:35;;;;;;;54.73;21.43;;;;;;;-12.20;74.58;95928.75;1699814;84;21033;-66
2022/01/20 05:05:07;;;;;;;30.33;12.70;;;;;;;-12.12;74.65;95921.70;1700786;84;21021;-68
2022/01/20 05:07:35;;;;;;;3.77;1.50;;;;;;;-12.13;74.16;95923.73;1696098;84;20985;-69
2022/01/20 05:10:07;;;;;;;4.33;1.30;;;;;;;-12.02;74.83;95920.31;1700863;84;21040;-69
2022/01/20 05:13:02;;;;;;;4.60;1.90;;;;;;;-12.01;74.79;95911.02;1701034;84;21109;-68
2022/01/20 05:15:04;;;;;;;6.83;3.33;;;;;;;-11.96;75.70;95916.44;1698155;84;21064;-68
2022/01/20 05:17:30;;;;;;;23.03;8.97;;;;;;;-11.93;74.79;95912.83;1682912;84;21021;-68
2022/01/20 05:19:57;;;;;;;11.63;5.10;;;;;;;-12.02;75.20;95907.59;1700602;84;21064;-70
2022/01/20 05:22:24;;;;;;;13.77;5.50;;;;;;;-12.00;75.48;95914.92;1700939;84;21499;-68
2022/01/20 05:24:52;;;;;;;10.17;5.03;;;;;;;-11.91;75.61;95910.02;1700717;84;21475;-69
2022/01/20 05:27:19;;;;;;;19.83;7.77;;;;;;;-11.81;75.70;95921.31;1701018;84;21033;-69
2022/01/20 05:29:45;;;;;;;2.20;1.17;;;;;;;-11.76;75.52;95919.58;1700914;84;21574;-69
2022/01/20 05:32:14;;;;;;;11.77;4.67;;;;;;;-11.71;75.11;95919.91;1700821;84;21021;-67
2022/01/20 05:34:41;;;;;;;11.57;5.97;;;;;;;-11.57;75.59;95924.67;1700935;84;21041;-69
2022/01/20 05:37:08;;;;;;;29.53;12.53;;;;;;;-11.40;76.60;95919.49;1700690;84;21024;-68
2022/01/20 05:39:35;;;;;;;20.97;8.63;;;;;;;-11.46;76.08;95915.27;1700748;84;21064;-68
2022/01/20 05:42:01;;;;;;;63.60;28.10;;;;;;;-11.50;74.82;95914.15;1701290;84;21100;-68
2022/01/20 05:44:36;;;;;;;49.43;20.83;;;;;;;-11.42;74.83;95899.00;1700130;84;21068;-69
2022/01/20 05:47:11;;;;;;;58.47;24.97;;;;;;;-11.53;74.37;95902.48;1701016;84;20989;-68
2022/01/20 05:49:37;;;;;;;77.57;29.97;;;;;;;-11.47;75.08;95900.34;1697084;84;21084;-68
2022/01/20 05:52:05;;;;;;;95.67;38.13;;;;;;;-11.36;75.35;95890.92;1700903;84;21025;-68
2022/01/20 05:54:32;;;;;;;93.40;35.43;;;;;;;-11.25;75.22;95895.08;1700980;84;21009;-68
2022/01/20 05:56:59;;;;;;;92.33;38.10;;;;;;;-11.11;76.08;95884.56;1700806;84;21115;-68
2022/01/20 05:59:25;;;;;;;80.97;30.33;;;;;;;-10.92;76.44;95883.72;1700585;84;21041;-68
2022/01/20 06:01:56;;;;;;;101.70;40.43;;;;;;;-10.62;76.74;95889.09;1700735;84;21064;-68
2022/01/20 06:04:21;;;;;;;99.17;43.73;;;;;;;-10.39;76.30;95891.00;1700422;84;21048;-69
2022/01/20 06:06:48;;;;;;;93.00;38.50;;;;;;;-10.22;76.07;95888.24;1700820;84;20981;-68
2022/01/20 06:09:14;;;;;;;85.80;37.53;;;;;;;-10.13;75.39;95889.72;1697712;84;21037;-67
2022/01/20 06:11:42;;;;;;;85.20;37.37;;;;;;;-10.13;74.89;95876.97;1694993;85;21069;-68
2022/01/20 06:14:10;;;;;;;64.50;27.77;;;;;;;-10.11;75.53;95874.09;1694660;85;21550;-69
2022/01/20 06:16:38;;;;;;;67.07;29.70;;;;;;;-9.98;75.03;95870.64;1694367;85;21124;-68
2022/01/20 06:19:06;;;;;;;76.40;32.87;;;;;;;-9.97;74.57;95863.90;1693949;85;21063;-68
2022/01/20 06:21:32;;;;;;;68.63;28.73;;;;;;;-9.91;74.94;95859.16;1695019;85;21131;-70
2022/01/20 06:23:58;;;;;;;58.43;27.67;;;;;;;-9.93;74.64;95856.50;1694978;85;21024;-69
2022/01/20 06:26:25;;;;;;;60.57;30.23;;;;;;;-9.86;74.78;95852.67;1694785;85;21076;-68
2022/01/20 06:28:52;;;;;;;68.60;31.10;;;;;;;-9.73;74.66;95845.38;1694954;85;20989;-66
2022/01/20 06:31:18;;;;;;;62.73;28.67;;;;;;;-9.61;74.83;95841.03;1695523;85;21143;-68
2022/01/20 06:33:47;;;;;;;62.37;29.83;;;;;;;-9.56;75.13;95840.92;1695597;85;21033;-67
2022/01/20 06:36:14;;;;;;;68.90;33.20;;;;;;;-9.39;75.32;95842.84;1695373;85;21156;-68
2022/01/20 06:38:42;;;;;;;75.63;35.87;;;;;;;-9.40;74.86;95835.06;1677080;85;20966;-66
2022/01/20 06:41:08;;;;;;;68.67;30.37;;;;;;;-9.42;74.84;95841.78;1694351;85;22339;-66
2022/01/20 06:43:36;;;;;;;153.33;57.63;;;;;;;-9.38;74.64;95847.14;1695109;85;21037;-66
2022/01/20 06:46:04;;;;;;;149.30;54.47;;;;;;;-9.37;74.54;95844.22;1695544;85;21061;-66
2022/01/20 06:48:38;;;;;;;125.83;46.20;;;;;;;-9.27;74.95;95849.47;1691588;85;21052;-69
2022/01/20 06:51:12;;;;;;;125.37;45.43;;;;;;;-9.15;74.51;95839.61;1692658;85;21096;-67
2022/01/20 06:53:39;;;;;;;78.13;33.03;;;;;;;-9.14;73.85;95828.98;1677224;85;21036;-67
2022/01/20 06:56:05;;;;;;;58.23;27.20;;;;;;;-9.11;74.05;95820.22;1695562;85;21013;-66
2022/01/20 06:58:32;;;;;;;51.13;21.10;;;;;;;-9.09;74.36;95821.20;1695365;85;21064;-69
2022/01/20 07:00:58;;;;;;;82.87;38.70;;;;;;;-9.06;74.62;95802.60;1694175;85;21040;-65
2022/01/20 07:03:25;;;;;;;90.60;35.93;;;;;;;-9.03;73.62;95795.98;1693980;85;21089;-67
2022/01/20 07:05:52;;;;;;;52.47;25.53;;;;;;;-9.10;73.54;95775.95;1695262;85;21033;-67
2022/01/20 07:08:20;;;;;;;92.80;42.57;;;;;;;-9.09;73.73;95779.02;1696151;84;21096;-67
2022/01/20 07:10:48;;;;;;;104.97;50.63;;;;;;;-9.10;73.72;95772.13;1700503;84;21538;-68
2022/01/20 07:13:14;;;;;;;103.17;45.80;;;;;;;-9.07;73.72;95779.09;1681171;84;21150;-67
2022/01/20 07:15:41;;;;;;;115.87;51.13;;;;;;;-8.94;74.06;95774.80;1699504;84;21064;-68
2022/01/20 07:18:08;;;;;;;96.63;45.17;;;;;;;-8.85;74.35;95772.28;1700917;84;21491;-66
2022/01/20 07:20:34;;;;;;;79.00;34.03;;;;;;;-8.69;74.63;95781.33;1700745;84;21491;-66
2022/01/20 07:23:15;;;;;;;71.23;31.57;;;;;;;-8.62;74.15;95759.11;1623221;84;21545;-65
2022/01/20 07:25:47;;;;;;;55.53;25.83;;;;;;;-8.46;73.99;95763.44;1698516;84;21084;-66
2022/01/20 07:28:15;;;;;;;133.23;58.13;;;;;;;-8.37;73.98;95756.63;1701160;84;21013;-65
2022/01/20 07:30:42;;;;;;;70.50;31.03;;;;;;;-8.21;73.95;95756.69;1700896;84;21610;-66
2022/01/20 07:33:10;;;;;;;133.70;57.30;;;;;;;-8.11;73.49;95743.59;1700705;84;21108;-65
2022/01/20 07:35:39;;;;;;;65.27;31.53;;;;;;;-8.10;73.35;95737.66;1700436;84;21527;-64
2022/01/20 07:38:07;;;;;;;32.80;15.20;;;;;;;-8.03;73.47;95735.05;1700847;84;21085;-66
2022/01/20 07:40:35;;;;;;;21.07;10.27;;;;;;;-7.84;73.58;95736.52;1700817;84;21033;-65
2022/01/20 07:43:03;;;;;;;17.97;8.50;;;;;;;-7.60;73.70;95733.48;1701166;84;21490;-65
2022/01/20 07:45:35;;;;;;;17.73;9.43;;;;;;;-7.36;74.02;95736.83;1676929;84;21550;-66
2022/01/20 07:48:05;;;;;;;32.60;17.73;;;;;;;-7.03;73.96;95738.94;1697969;84;21002;-67
2022/01/20 07:50:32;;;;;;;43.33;20.13;;;;;;;-6.75;73.30;95724.55;1683075;84;21542;-66
2022/01/20 07:52:59;;;;;;;44.40;24.07;;;;;;;-6.61;72.61;95728.64;1700296;84;21088;-68
2022/01/20 07:55:26;;;;;;;42.73;21.07;;;;;;;-6.47;72.71;95721.62;1700973;84;21029;-67
2022/01/20 07:57:53;;;;;;;41.30;22.27;;;;;;;-6.29;72.65;95729.73;1701008;84;21530;-68
2022/01/20 08:00:22;;;;;;;36.97;18.20;;;;;;;-6.13;72.64;95723.22;1700963;84;21505;-68
2022/01/20 08:02:50;;;;;;;24.27;13.83;;;;;;;-6.04;72.22;95715.08;1701079;84;21000;-67
2022/01/20 08:05:19;;;;;;;21.67;12.27;;;;;;;-5.92;71.59;95704.02;1699403;84;22387;-67
2022/01/20 08:07:45;;;;;;;26.77;15.33;;;;;;;-5.84;70.78;95700.13;1701004;84;21028;-67
2022/01/20 08:10:14;;;;;;;21.87;13.37;;;;;;;-5.68;70.85;95701.28;1701036;84;21641;-68
2022/01/20 08:12:43;;;;;;;26.60;12.17;;;;;;;-5.47;70.64;95709.09;1701033;84;21045;-66
2022/01/20 08:15:14;;;;;;;33.93;18.27;;;;;;;-5.26;70.96;95694.11;1700667;84;21025;-66
2022/01/20 08:17:44;;;;;;;31.40;15.73;;;;;;;-5.01;71.12;95687.03;1666858;84;21475;-68
2022/01/20 08:20:12;;;;;;;26.60;13.20;;;;;;;-4.76;70.73;95695.75;1700875;84;21101;-69
2022/01/20 08:22:39;;;;;;;35.20;17.47;;;;;;;-4.64;70.10;95678.23;1700960;84;21037;-67
2022/01/20 08:25:12;;;;;;;30.37;15.30;;;;;;;-4.43;69.86;95679.12;1701414;84;21502;-66
2022/01/20 08:27:41;;;;;;;44.63;22.57;;;;;;;-4.28;69.55;95679.23;1700687;84;21045;-66
2022/01/20 08:30:12;;;;;;;33.80;17.40;;;;;;;-4.07;69.61;95676.22;1700909;84;21518;-64
2022/01/20 08:32:40;;;;;;;32.80;18.33;;;;;;;-3.87;69.51;95673.52;1682857;84;21597;-67
2022/01/20 08:35:15;;;;;;;31.87;18.63;;;;;;;-3.18;72.14;95661.41;1698760;84;21033;-67
2022/01/20 08:37:45;;;;;;;28.00;15.83;;;;;;;-2.55;71.84;95659.65;1685541;84;21088;-67
2022/01/20 08:40:16;;;;;;;9.90;6.57;;;;;;;-1.93;71.01;95649.95;1700779;84;21030;-68
2022/01/20 08:42:46;;;;;;;6.30;3.00;;;;;;;-1.31;70.29;95647.02;1700957;84;21033;-67
2022/01/20 08:45:16;;;;;;;4.87;2.83;;;;;;;-0.47;68.77;95645.73;1701399;84;21025;-67
2022/01/20 08:47:44;;;;;;;8.67;4.13;;;;;;;0.09;67.01;95638.39;1700915;84;21539;-65
2022/01/20 08:50:12;;;;;;;11.57;5.47;;;;;;;0.57;66.91;95640.70;1700594;84;21030;-68
2022/01/20 08:52:39;;;;;;;7.17;3.80;;;;;;;0.98;66.00;95640.23;1700875;84;21486;-67
2022/01/20 08:55:07;;;;;;;6.93;3.83;;;;;;;1.33;64.33;95645.17;1700846;84;21100;-66
2022/01/20 08:57:48;;;;;;;6.77;3.83;;;;;;;1.70;61.37;95647.12;1699360;84;21558;-69
2022/01/20 09:00:19;;;;;;;7.77;4.20;;;;;;;2.04;61.04;95632.92;1700695;84;21028;-68
2022/01/20 09:02:54;;;;;;;7.30;4.60;;;;;;;2.22;59.46;95628.80;1700522;84;21092;-63
2022/01/20 09:05:22;;;;;;;8.27;4.77;;;;;;;2.41;59.28;95632.11;1700738;84;20993;-67
2022/01/20 09:07:51;;;;;;;12.30;7.93;;;;;;;2.58;59.85;95616.72;1698071;84;21072;-64
2022/01/20 09:10:20;;;;;;;10.37;4.73;;;;;;;2.73;59.21;95612.98;1697113;84;21519;-67
2022/01/20 09:15:36;;;;;;;14.23;7.40;;;;;;;2.85;57.90;95612.67;1695284;85;21081;-65
2022/01/20 09:18:14;;;;;;;10.47;5.83;;;;;;;3.00;59.51;95610.27;1600874;89;21074;-68
2022/01/20 09:20:42;;;;;;;7.87;4.50;;;;;;;3.09;57.52;95597.74;1695501;84;21523;-66
2022/01/20 09:23:09;;;;;;;9.87;4.73;;;;;;;3.06;56.95;95599.02;1695410;85;21066;-67
2022/01/20 09:25:36;;;;;;;17.37;10.67;;;;;;;3.18;57.75;95596.11;1695707;85;21042;-67
2022/01/20 09:28:04;;;;;;;8.90;4.90;;;;;;;3.29;57.86;95587.08;1695724;85;21124;-67
2022/01/20 09:30:35;;;;;;;9.03;6.27;;;;;;;3.35;58.48;95581.94;1695749;85;21459;-68
2022/01/20 09:35:38;;;;;;;12.07;6.43;;;;;;;3.34;56.40;95585.38;1693150;84;21002;-68
2022/01/20 09:38:05;;;;;;;10.10;5.13;;;;;;;3.38;56.78;95591.52;1695092;85;21049;-68
2022/01/20 09:40:34;;;;;;;10.33;5.53;;;;;;;3.46;56.98;95580.72;1695165;85;21053;-68
2022/01/20 09:43:04;;;;;;;9.23;4.80;;;;;;;3.42;56.56;95579.80;1694770;85;21594;-69
2022/01/20 09:45:33;;;;;;;11.23;4.87;;;;;;;3.43;56.79;95585.91;1694685;85;21066;-68
2022/01/20 09:48:01;;;;;;;8.17;4.77;;;;;;;3.32;56.54;95573.19;1665655;86;21046;-66
2022/01/20 09:50:48;;;;;;;9.27;5.50;;;;;;;3.29;57.19;95564.91;1695284;85;21070;-66
2022/01/20 09:53:20;;;;;;;9.23;6.37;;;;;;;3.26;57.12;95576.62;1691395;85;21626;-67
2022/01/20 09:55:49;;;;;;;9.60;6.27;;;;;;;3.22;57.04;95574.83;1691771;85;20998;-68
2022/01/20 09:58:16;;;;;;;9.77;5.87;;;;;;;3.18;57.24;95573.95;1694668;85;21547;-65
2022/01/20 10:00:45;;;;;;;11.17;5.87;;;;;;;3.12;57.21;95567.78;1694556;85;21137;-66
2022/01/20 10:03:15;;;;;;;12.07;6.80;;;;;;;3.04;57.28;95571.63;1665353;86;21168;-69
2022/01/20 10:05:50;;;;;;;13.27;8.60;;;;;;;2.99;57.26;95557.23;1694640;85;21042;-71
2022/01/20 10:08:24;;;;;;;14.83;7.63;;;;;;;2.82;56.91;95558.79;1694299;85;21069;-69
2022/01/20 10:11:03;;;;;;;20.63;9.33;;;;;;;2.71;57.13;95557.81;1659114;84;21017;-69
2022/01/20 10:13:38;;;;;;;14.27;7.57;;;;;;;2.59;57.47;95547.69;1676565;85;21088;-69
2022/01/20 10:16:11;;;;;;;11.50;5.77;;;;;;;2.46;57.45;95544.94;1669849;85;21037;-71
2022/01/20 10:18:50;;;;;;;8.67;5.87;;;;;;;2.31;58.16;95549.53;1676235;85;21010;-71
2022/01/20 10:21:20;;;;;;;9.50;5.27;;;;;;;2.18;59.13;95548.50;1695184;85;21014;-71
2022/01/20 10:23:49;;;;;;;8.80;5.33;;;;;;;2.17;58.55;95545.47;1692681;85;21169;-70
2022/01/20 10:26:33;;;;;;;17.53;10.33;;;;;;;2.23;58.97;95539.45;1693941;85;21042;-71
2022/01/20 10:29:06;;;;;;;8.77;5.63;;;;;;;2.33;59.26;95529.60;1695307;85;21035;-70
2022/01/20 10:31:39;;;;;;;8.53;5.03;;;;;;;2.42;58.78;95529.72;1696221;84;21034;-70
2022/01/20 10:34:30;;;;;;;17.10;7.97;;;;;;;2.38;58.33;95524.88;1677236;85;21006;-70
2022/01/20 10:37:04;;;;;;;14.90;7.47;;;;;;;2.46;58.65;95521.06;1695490;85;21014;-69
2022/01/20 10:39:39;;;;;;;20.93;11.80;;;;;;;2.50;58.01;95520.25;1695226;85;21043;-70
2022/01/20 10:42:09;;;;;;;17.63;8.90;;;;;;;2.45;57.99;95519.77;1695514;85;20979;-70
2022/01/20 10:44:56;;;;;;;14.30;6.17;;;;;;;2.45;58.21;95515.42;1666175;85;21556;-70
2022/01/20 10:47:33;;;;;;;15.43;8.27;;;;;;;2.41;58.82;95512.77;1695230;85;21561;-71
2022/01/20 10:50:16;;;;;;;15.27;7.63;;;;;;;2.34;58.53;95507.50;1695599;85;21022;-70
2022/01/20 10:52:45;;;;;;;12.97;7.33;;;;;;;2.25;59.30;95507.81;1694312;85;21002;-70
2022/01/20 10:55:33;;;;;;;13.37;9.50;;;;;;;2.29;59.57;95511.78;1695598;85;21023;-70
2022/01/20 10:58:22;;;;;;;10.40;5.97;;;;;;;2.32;59.93;95497.48;1694888;85;21073;-70
2022/01/20 11:00:53;;;;;;;14.00;8.27;;;;;;;2.37;59.89;95502.75;1694799;85;21049;-71
2022/01/20 11:03:24;;;;;;;8.30;5.40;;;;;;;2.41;59.67;95502.34;1677670;85;21027;-70
2022/01/20 11:05:53;;;;;;;11.27;5.37;;;;;;;2.52;59.67;95491.61;1695446;85;21756;-69
2022/01/20 11:08:21;;;;;;;9.90;5.60;;;;;;;2.67;59.68;95486.98;1693541;85;21091;-70
2022/01/20 11:10:51;;;;;;;6.67;3.80;;;;;;;2.76;59.98;95488.39;1695645;84;21058;-69
2022/01/20 11:13:30;;;;;;;9.40;5.90;;;;;;;2.91;59.23;95479.41;1695288;85;21082;-70
2022/01/20 11:15:58;;;;;;;8.53;5.47;;;;;;;2.97;58.76;95475.58;1696201;85;21001;-70
2022/01/20 11:18:28;;;;;;;11.53;7.13;;;;;;;3.01;58.69;95478.63;1696360;85;21057;-70
2022/01/20 11:20:57;;;;;;;10.80;6.07;;;;;;;3.07;59.29;95465.20;1696244;85;21007;-70
2022/01/20 11:23:38;;;;;;;10.63;6.50;;;;;;;3.07;59.21;95452.17;1695913;85;21495;-69
2022/01/20 11:26:07;;;;;;;10.47;5.17;;;;;;;3.16;58.87;95450.95;1638939;85;21591;-69
2022/01/20 11:29:00;;;;;;;10.87;5.20;;;;;;;2.90;59.00;95436.39;1693532;85;21042;-69
2022/01/20 11:31:39;;;;;;;12.13;8.50;;;;;;;2.98;59.20;95442.13;1695517;85;21110;-69
2022/01/20 11:34:18;;;;;;;16.37;9.13;;;;;;;3.06;59.03;95438.27;1674554;85;21015;-69
2022/01/20 11:36:45;;;;;;;9.93;6.20;;;;;;;2.87;59.33;95438.53;1693267;84;21031;-69
2022/01/20 11:39:12;;;;;;;8.77;5.87;;;;;;;2.71;59.56;95437.55;1693208;85;21026;-69
2022/01/20 11:41:49;;;;;;;9.23;5.07;;;;;;;2.67;59.66;95435.79;1693373;85;21550;-69
2022/01/20 11:44:29;;;;;;;6.47;4.07;;;;;;;2.59;59.84;95434.38;1693214;85;21018;-69
2022/01/20 11:47:09;;;;;;;10.53;5.37;;;;;;;2.50;60.31;95423.03;1693469;84;21015;-70
2022/01/20 11:49:39;;;;;;;10.70;5.37;;;;;;;2.49;60.41;95426.04;1693275;84;21002;-70
2022/01/20 11:52:07;;;;;;;10.37;6.33;;;;;;;2.47;60.71;95413.45;1693168;84;21035;-69
2022/01/20 11:54:41;;;;;;;10.00;6.43;;;;;;;2.42;61.24;95413.84;1693226;84;21031;-70
2022/01/20 11:57:30;;;;;;;19.97;11.40;;;;;;;2.45;61.22;95416.91;1693417;85;21484;-70
2022/01/20 12:00:01;;;;;;;10.30;5.80;;;;;;;2.51;61.47;95404.80;1695905;84;21074;-70
2022/01/20 12:02:35;;;;;;;17.77;11.93;;;;;;;2.47;61.72;95404.75;1695809;84;21010;-70
2022/01/20 12:05:28;;;;;;;11.07;7.03;;;;;;;2.46;61.72;95398.67;1695812;85;21026;-70
2022/01/20 12:08:18;;;;;;;6.33;4.37;;;;;;;2.43;61.89;95396.48;1693774;85;21043;-70
2022/01/20 12:11:10;;;;;;;7.80;4.67;;;;;;;2.38;62.28;95397.30;1695592;84;21097;-71
2022/01/20 12:13:54;;;;;;;6.47;4.50;;;;;;;2.40;62.32;95405.14;1695822;85;21130;-70
2022/01/20 12:16:24;;;;;;;;;;;;;;;2.42;62.61;95381.70;1698402;85;21078;-70
2022/01/20 12:18:53;;;;;;;10.60;5.70;;;;;;;2.48;62.45;95368.75;1695688;85;20412;-70
2022/01/20 12:21:21;;;;;;;8.63;4.57;;;;;;;2.59;62.42;95354.94;1696219;84;21042;-69
2022/01/20 12:23:49;;;;;;;5.67;3.60;;;;;;;2.64;61.81;95345.00;1696049;85;21038;-70
2022/01/20 12:26:16;;;;;;;5.47;3.43;;;;;;;2.65;61.95;95351.53;1696096;84;21516;-69
2022/01/20 12:28:42;;;;;;;7.90;4.90;;;;;;;2.61;62.10;95356.27;1695976;84;21019;-69